Time;durP1;ratioP1;P1;durP2;ratioP2;P2;SDS_P1;SDS_P2;PMS_P1;PMS_P2;Temp;Humidity;BMP_temperature;BMP_pressure;BME280_temperature;BME280_humidity;BME280_pressure;Samples;Min_cycle;Max_cycle;Signal;HPM_P1;HPM_P2
2023/05/14 04:00:56;;;;;;;4.47;4.18;;;10.90;99.90;;;;;;5704750;23;20235;-71
2023/05/14 04:03:22;;;;;;;3.00;2.85;;;11.00;99.90;;;;;;4991717;28;20224;-71
2023/05/14 04:05:50;;;;;;;4.22;3.97;;;11.00;99.90;;;;;;4994698;28;20207;-71
2023/05/14 04:08:17;;;;;;;2.75;2.65;;;11.00;99.90;;;;;;4994353;28;20215;-71
2023/05/14 04:10:43;;;;;;;4.13;3.70;;;11.00;99.90;;;;;;4994229;28;20231;-71
2023/05/14 04:13:10;;;;;;;5.47;4.15;;;11.00;99.90;;;;;;4993841;28;20207;-71
2023/05/14 04:15:38;;;;;;;4.07;3.70;;;11.00;99.90;;;;;;4993273;28;20241;-72
2023/05/14 04:18:06;;;;;;;5.13;4.80;;;11.00;99.90;;;;;;4993690;28;20294;-72
2023/05/14 04:20:32;;;;;;;3.83;3.50;;;11.10;99.90;;;;;;4993468;28;20228;-73
2023/05/14 04:22:59;;;;;;;4.50;4.25;;;11.10;99.90;;;;;;4993847;28;20232;-72
2023/05/14 04:25:26;;;;;;;4.22;3.95;;;11.10;99.90;;;;;;4993463;28;20208;-72
2023/05/14 04:27:52;;;;;;;4.60;4.25;;;11.20;99.90;;;;;;4994063;28;20629;-72
2023/05/14 04:30:19;;;;;;;5.50;5.20;;;11.40;99.90;;;;;;4993669;28;20644;-72
2023/05/14 04:32:46;;;;;;;5.10;4.80;;;11.70;99.90;;;;;;4994265;28;20212;-72
2023/05/14 04:35:14;;;;;;;11.10;5.73;;;12.00;99.90;;;;;;5000736;28;20602;-73
2023/05/14 04:37:41;;;;;;;3.30;3.00;;;12.50;99.90;;;;;;5003731;28;20485;-72
2023/05/14 04:40:10;;;;;;;3.33;3.23;;;12.90;99.90;;;;;;4996653;28;20471;-73
2023/05/14 04:42:36;;;;;;;3.27;3.17;;;13.00;99.90;;;;;;4994529;28;20623;-73
2023/05/14 04:45:04;;;;;;;4.00;3.80;;;12.90;99.90;;;;;;5002209;28;20459;-74
2023/05/14 04:47:30;;;;;;;3.97;3.73;;;12.80;99.90;;;;;;5002242;28;20561;-73
2023/05/14 04:49:57;;;;;;;3.33;3.13;;;13.10;99.90;;;;;;4996355;28;20550;-72
2023/05/14 04:52:26;;;;;;;3.37;3.17;;;13.50;99.90;;;;;;4993563;28;20697;-69
2023/05/14 04:54:52;;;;;;;2.87;2.77;;;14.00;99.90;;;;;;4992573;28;20463;-69
2023/05/14 04:57:19;;;;;;;3.63;3.43;;;14.30;99.90;;;;;;4992979;28;20559;-70
2023/05/14 04:59:46;;;;;;;3.67;3.57;;;14.40;99.90;;;;;;4992610;28;20466;-71
2023/05/14 05:02:13;;;;;;;4.00;3.80;;;14.60;99.90;;;;;;4993484;28;20503;-71
2023/05/14 05:04:39;;;;;;;3.80;3.70;;;14.90;99.90;;;;;;4992545;28;20975;-70
2023/05/14 05:07:06;;;;;;;3.73;3.53;;;15.30;99.90;;;;;;4993307;28;21021;-70
2023/05/14 05:09:34;;;;;;;3.13;3.03;;;15.50;99.90;;;;;;4993414;28;20593;-71
2023/05/14 05:12:01;;;;;;;3.17;3.07;;;15.40;99.90;;;;;;4993013;28;20486;-71
2023/05/14 05:14:28;;;;;;;3.97;3.63;;;15.10;99.90;;;;;;4991664;28;20904;-71
2023/05/14 05:16:54;;;;;;;3.27;3.17;;;15.00;99.90;;;;;;4993079;28;21000;-71
2023/05/14 05:19:21;;;;;;;3.30;3.20;;;14.80;99.90;;;;;;4992423;28;20466;-71
2023/05/14 05:21:48;;;;;;;3.73;3.53;;;14.70;99.90;;;;;;4992715;28;20530;-71
2023/05/14 05:24:15;;;;;;;3.47;3.27;;;14.60;99.90;;;;;;4992240;28;20772;-71
2023/05/14 05:26:43;;;;;;;3.60;3.40;;;14.60;99.90;;;;;;4992643;28;20497;-71
2023/05/14 05:29:09;;;;;;;3.17;3.07;;;14.60;99.90;;;;;;4992453;28;20467;-71
2023/05/14 05:31:36;;;;;;;3.30;3.20;;;14.50;99.90;;;;;;4991745;28;20478;-71
2023/05/14 05:34:03;;;;;;;3.23;3.13;;;14.40;99.90;;;;;;4992244;28;20463;-70
2023/05/14 05:36:30;;;;;;;3.23;3.10;;;14.30;99.90;;;;;;4992132;28;20466;-70
2023/05/14 05:38:57;;;;;;;3.43;3.23;;;14.30;99.90;;;;;;4992559;28;20585;-72
2023/05/14 05:41:24;;;;;;;3.90;3.70;;;14.40;99.90;;;;;;4986127;28;20911;-71
2023/05/14 05:43:52;;;;;;;2.97;2.83;;;14.40;99.90;;;;;;4991550;28;20773;-71
2023/05/14 05:46:19;;;;;;;3.77;3.57;;;14.40;99.90;;;;;;4991044;28;20888;-72
2023/05/14 05:48:45;;;;;;;3.63;2.87;;;14.40;99.90;;;;;;4995459;28;20557;-72
2023/05/14 05:51:12;;;;;;;4.23;3.97;;;14.60;99.90;;;;;;4993068;28;20582;-72
2023/05/14 05:53:39;;;;;;;5.03;4.37;;;14.60;99.90;;;;;;4992376;28;20462;-72
2023/05/14 05:56:06;;;;;;;3.60;3.40;;;14.70;99.90;;;;;;4992279;28;20458;-72
2023/05/14 05:58:33;;;;;;;4.77;4.40;;;14.70;99.90;;;;;;4992730;28;20470;-73
2023/05/14 06:01:01;;;;;;;3.30;3.13;;;14.90;99.90;;;;;;4991697;28;20839;-73
2023/05/14 06:03:28;;;;;;;4.13;3.70;;;15.20;99.90;;;;;;4991839;28;20521;-72
2023/05/14 06:05:55;;;;;;;4.10;3.90;;;15.50;99.90;;;;;;4997820;28;20545;-73
2023/05/14 06:08:21;;;;;;;3.57;3.40;;;15.60;99.90;;;;;;5000351;28;20459;-73
2023/05/14 06:10:48;;;;;;;3.73;3.53;;;15.60;99.90;;;;;;5002320;28;20565;-74
2023/05/14 06:13:15;;;;;;;3.60;3.40;;;15.60;99.90;;;;;;5002848;28;20469;-73
2023/05/14 06:15:41;;;;;;;2.80;2.80;;;15.70;99.90;;;;;;4999612;28;20478;-73
2023/05/14 06:18:09;;;;;;;4.30;4.00;;;15.80;99.90;;;;;;5004671;28;20525;-74
2023/05/14 06:20:36;;;;;;;3.13;3.03;;;15.90;99.90;;;;;;5006817;28;20511;-74
2023/05/14 06:23:03;;;;;;;3.33;3.13;;;16.00;99.90;;;;;;5006571;28;20486;-72
2023/05/14 06:25:29;;;;;;;3.20;3.00;;;16.50;99.90;;;;;;5007868;28;20462;-73
2023/05/14 06:27:56;;;;;;;3.27;3.10;;;16.70;99.90;;;;;;5010250;28;20494;-73
2023/05/14 06:30:23;;;;;;;3.33;3.23;;;16.90;99.90;;;;;;5008642;28;20474;-73
2023/05/14 06:32:50;;;;;;;3.03;2.93;;;17.20;99.90;;;;;;5009989;28;20467;-73
2023/05/14 06:35:18;;;;;;;4.73;3.33;;;17.30;99.90;;;;;;5010783;28;20473;-73
2023/05/14 06:37:45;;;;;;;3.80;3.70;;;17.90;99.90;;;;;;5011917;28;20470;-74
2023/05/14 06:40:14;;;;;;;3.60;3.40;;;19.10;99.90;;;;;;5004638;28;20469;-71
2023/05/14 06:42:41;;;;;;;3.27;3.17;;;19.90;99.90;;;;;;5000271;28;20564;-71
2023/05/14 06:45:08;;;;;;;3.27;3.17;;;20.60;99.90;;;;;;5007095;28;20474;-72
2023/05/14 06:47:34;;;;;;;3.07;2.97;;;20.90;99.90;;;;;;5009195;28;20468;-72
2023/05/14 06:50:01;;;;;;;3.90;3.70;;;21.70;99.90;;;;;;5007489;28;20468;-72
2023/05/14 06:52:29;;;;;;;2.73;2.70;;;22.40;99.90;;;;;;4997402;28;20983;-72
2023/05/14 06:54:56;;;;;;;3.20;3.10;;;22.80;99.90;;;;;;4995273;28;20939;-72
2023/05/14 06:57:23;;;;;;;2.70;2.60;;;23.10;99.90;;;;;;4997662;28;20971;-73
2023/05/14 06:59:49;;;;;;;2.23;2.23;;;23.40;99.90;;;;;;4995326;28;20466;-73
2023/05/14 07:02:16;;;;;;;2.27;2.27;;;23.60;99.90;;;;;;4994690;28;20494;-72
2023/05/14 07:04:43;;;;;;;2.43;2.43;;;24.00;99.90;;;;;;4995028;28;20458;-74
2023/05/14 07:07:14;;;;;;;2.20;2.20;;;24.70;99.70;;;;;;4994670;28;20839;-75
2023/05/14 07:09:42;;;;;;;2.50;2.50;;;24.80;98.20;;;;;;4995220;28;20538;-74
2023/05/14 07:12:09;;;;;;;2.10;2.10;;;24.60;97.20;;;;;;4995194;28;20493;-74
2023/05/14 07:14:36;;;;;;;1.80;1.80;;;24.80;97.00;;;;;;4992301;28;20938;-72
2023/05/14 07:17:03;;;;;;;2.10;2.10;;;25.20;96.10;;;;;;4992920;28;20979;-72
2023/05/14 07:19:29;;;;;;;1.90;1.90;;;25.70;95.00;;;;;;4992256;28;20493;-73
2023/05/14 07:21:56;;;;;;;2.40;2.40;;;26.00;93.80;;;;;;4992174;28;20483;-72
2023/05/14 07:24:23;;;;;;;1.97;1.97;;;26.30;92.90;;;;;;4991884;28;20490;-72
2023/05/14 07:26:51;;;;;;;1.83;1.83;;;26.30;91.60;;;;;;4992329;28;20594;-72
2023/05/14 07:29:18;;;;;;;1.40;1.40;;;26.20;91.60;;;;;;4990865;28;20470;-72
2023/05/14 07:31:45;;;;;;;1.60;1.60;;;25.80;87.90;;;;;;4992020;28;20482;-72
2023/05/14 07:34:12;;;;;;;1.93;1.93;;;25.40;86.10;;;;;;4991157;28;20467;-73
2023/05/14 07:36:38;;;;;;;1.37;1.37;;;25.20;85.20;;;;;;4992429;28;20940;-72
2023/05/14 07:39:05;;;;;;;1.80;1.80;;;24.90;84.30;;;;;;4992237;28;20478;-72
2023/05/14 07:41:32;;;;;;;1.60;1.60;;;24.60;85.10;;;;;;4984316;28;20564;-72
2023/05/14 07:44:00;;;;;;;1.70;1.60;;;24.30;85.50;;;;;;4990799;28;20487;-72
2023/05/14 07:46:27;;;;;;;1.57;1.57;;;24.20;85.20;;;;;;4990688;28;20558;-72
2023/05/14 07:48:54;;;;;;;1.30;1.30;;;24.00;84.20;;;;;;4991750;28;20684;-72
2023/05/14 07:51:20;;;;;;;1.80;1.80;;;23.90;85.50;;;;;;4991803;28;20492;-71
2023/05/14 07:53:47;;;;;;;2.07;2.00;;;24.00;85.10;;;;;;4990817;28;20820;-71
2023/05/14 07:56:14;;;;;;;2.00;2.00;;;23.90;82.70;;;;;;4991244;28;20462;-71
2023/05/14 07:58:41;;;;;;;1.80;1.80;;;23.70;84.50;;;;;;4991567;28;20548;-72
2023/05/14 08:01:09;;;;;;;1.90;1.90;;;23.60;84.20;;;;;;4990209;28;20500;-73
2023/05/14 08:03:35;;;;;;;1.97;1.90;;;23.40;84.40;;;;;;4991166;28;20584;-73
2023/05/14 08:06:02;;;;;;;1.60;1.60;;;23.30;85.80;;;;;;4990937;28;20469;-74
2023/05/14 08:08:29;;;;;;;2.10;2.10;;;23.00;84.60;;;;;;4993168;28;20469;-74
2023/05/14 08:10:56;;;;;;;1.80;1.80;;;22.90;87.10;;;;;;4994524;28;21027;-73
2023/05/14 08:13:22;;;;;;;1.50;1.50;;;22.60;85.90;;;;;;4994411;28;20559;-74
2023/05/14 08:15:50;;;;;;;1.87;1.87;;;22.50;86.10;;;;;;4993942;28;20541;-73
2023/05/14 08:18:18;;;;;;;1.97;1.97;;;22.40;86.70;;;;;;4994966;28;20463;-74
2023/05/14 08:20:44;;;;;;;2.37;2.27;;;22.10;85.00;;;;;;4994598;28;20495;-74
2023/05/14 08:23:11;;;;;;;1.90;1.90;;;21.90;88.30;;;;;;4994337;28;20538;-74
2023/05/14 08:25:38;;;;;;;3.53;1.97;;;21.80;89.40;;;;;;4994516;28;20474;-73
2023/05/14 08:28:05;;;;;;;3.10;2.97;;;21.60;90.60;;;;;;4994243;28;21076;-74
2023/05/14 08:30:32;;;;;;;2.00;2.00;;;21.60;90.00;;;;;;4993181;28;20578;-73
2023/05/14 08:32:59;;;;;;;2.60;2.50;;;21.70;90.10;;;;;;4994926;28;20486;-72
2023/05/14 08:35:27;;;;;;;2.70;2.60;;;21.50;89.70;;;;;;4993494;28;20467;-72
2023/05/14 08:37:55;;;;;;;3.07;2.87;;;21.50;90.10;;;;;;4994546;28;20467;-72
2023/05/14 08:40:22;;;;;;;1.83;1.83;;;21.50;90.00;;;;;;4987164;28;20490;-72
2023/05/14 08:42:50;;;;;;;7.93;2.50;;;21.60;89.40;;;;;;4993613;28;20459;-72
2023/05/14 08:45:18;;;;;;;1.90;1.90;;;21.60;88.40;;;;;;4992557;28;20505;-72
2023/05/14 08:47:48;;;;;;;1.70;1.70;;;21.60;88.00;;;;;;4993798;28;20951;-73
2023/05/14 08:50:15;;;;;;;2.60;2.50;;;21.60;87.30;;;;;;4993234;28;20557;-72
2023/05/14 08:52:44;;;;;;;2.43;2.33;;;21.70;86.90;;;;;;4993628;28;20939;-73
2023/05/14 08:55:12;;;;;;;1.50;1.50;;;21.60;86.80;;;;;;4992806;28;20904;-73
2023/05/14 08:57:39;;;;;;;2.13;2.13;;;21.60;86.90;;;;;;4993096;28;20471;-73
2023/05/14 09:00:10;;;;;;;2.30;2.20;;;21.70;87.30;;;;;;4992302;28;20498;-72
2023/05/14 09:02:38;;;;;;;2.50;2.40;;;21.60;84.40;;;;;;4993370;28;20459;-73
2023/05/14 09:05:08;;;;;;;2.10;2.00;;;21.60;84.60;;;;;;4991953;28;20549;-72
2023/05/14 09:07:35;;;;;;;2.77;1.80;;;21.50;85.30;;;;;;4992587;28;20986;-73
2023/05/14 09:10:04;;;;;;;2.40;2.30;;;21.60;85.30;;;;;;4992496;28;20467;-72
2023/05/14 09:12:31;;;;;;;1.63;1.60;;;21.60;85.40;;;;;;4992164;28;20483;-72
2023/05/14 09:14:58;;;;;;;2.47;2.30;;;21.80;86.00;;;;;;4991318;28;20485;-73
2023/05/14 09:17:27;;;;;;;1.73;1.63;;;21.80;84.80;;;;;;4992147;28;20491;-73
2023/05/14 09:19:53;;;;;;;2.27;2.27;;;21.90;83.50;;;;;;4991870;28;20505;-72
2023/05/14 09:22:21;;;;;;;2.10;2.10;;;22.10;82.90;;;;;;4991843;28;20993;-73
2023/05/14 09:25:04;;;;;;;2.03;2.03;;;22.00;83.30;;;;;;4990917;28;20491;-72
2023/05/14 09:27:32;;;;;;;2.57;2.47;;;22.20;82.70;;;;;;4992047;28;20467;-72
2023/05/14 09:30:06;;;;;;;1.83;1.73;;;22.20;83.90;;;;;;4990883;28;20570;-72
2023/05/14 09:32:36;;;;;;;1.47;1.47;;;22.10;80.70;;;;;;4991725;28;20489;-72
2023/05/14 09:35:11;;;;;;;1.30;1.30;;;21.90;81.60;;;;;;4991460;28;20498;-72
2023/05/14 09:37:41;;;;;;;1.83;1.83;;;21.70;80.00;;;;;;4991783;28;20477;-72
2023/05/14 09:40:10;;;;;;;2.10;1.97;;;21.60;80.50;;;;;;4985043;28;20471;-72
2023/05/14 09:42:36;;;;;;;1.80;1.80;;;21.50;81.50;;;;;;4991341;28;20907;-71
2023/05/14 09:45:04;;;;;;;1.50;1.50;;;21.50;80.80;;;;;;4990156;28;20605;-71
2023/05/14 09:47:31;;;;;;;6.40;2.70;;;21.60;80.40;;;;;;4991592;28;20529;-70
2023/05/14 09:49:58;;;;;;;1.50;1.50;;;21.90;78.60;;;;;;4990894;28;20467;-70
2023/05/14 09:52:25;;;;;;;2.40;1.77;;;22.10;74.90;;;;;;4991275;28;20486;-71
2023/05/14 09:54:52;;;;;;;1.17;1.17;;;22.20;76.10;;;;;;4990678;28;20478;-71
2023/05/14 09:57:20;;;;;;;1.67;1.67;;;22.50;76.00;;;;;;4991102;28;20880;-71
2023/05/14 09:59:47;;;;;;;2.00;1.90;;;22.80;74.80;;;;;;4990608;28;20579;-72
2023/05/14 10:02:21;;;;;;;1.80;1.70;;;22.90;73.10;;;;;;4990982;28;20543;-72
2023/05/14 10:04:50;;;;;;;1.50;1.50;;;22.70;74.60;;;;;;4990780;28;20500;-71
2023/05/14 10:07:21;;;;;;;2.17;2.07;;;22.90;71.70;;;;;;4991632;28;20942;-71
2023/05/14 10:09:48;;;;;;;1.80;1.70;;;22.90;72.10;;;;;;4990742;28;20610;-72
2023/05/14 10:12:21;;;;;;;1.30;1.30;;;22.80;70.70;;;;;;4991027;28;20663;-71
2023/05/14 10:14:53;;;;;;;1.83;1.83;;;22.80;72.40;;;;;;4989923;28;20623;-70
2023/05/14 10:17:23;;;;;;;1.60;1.60;;;22.90;72.20;;;;;;4993444;28;20535;-71
2023/05/14 10:19:53;;;;;;;1.27;1.27;;;23.00;73.50;;;;;;4992177;28;20901;-71
2023/05/14 10:22:23;;;;;;;1.67;1.63;;;23.10;72.20;;;;;;4992592;28;20607;-71
2023/05/14 10:24:51;;;;;;;2.23;2.03;;;23.20;73.10;;;;;;4991946;28;20502;-71
2023/05/14 10:27:18;;;;;;;1.83;1.83;;;23.20;71.10;;;;;;4992022;28;20491;-71
2023/05/14 10:29:54;;;;;;;1.60;1.60;;;23.20;72.40;;;;;;4990841;28;20475;-72
2023/05/14 10:32:21;;;;;;;1.43;1.43;;;23.30;71.90;;;;;;4991027;28;20529;-70
2023/05/14 10:34:48;;;;;;;2.00;2.00;;;23.30;71.70;;;;;;4990514;28;20468;-70
2023/05/14 10:37:16;;;;;;;3.47;1.83;;;23.20;71.50;;;;;;4991503;28;20474;-71
2023/05/14 10:39:45;;;;;;;2.33;2.23;;;23.40;69.30;;;;;;4988567;28;20567;-71
2023/05/14 10:42:13;;;;;;;2.00;2.00;;;23.30;71.00;;;;;;4989328;28;20915;-71
2023/05/14 10:44:46;;;;;;;2.10;2.10;;;23.10;70.80;;;;;;4991487;28;20810;-71
2023/05/14 10:47:16;;;;;;;2.20;2.20;;;23.00;71.90;;;;;;4993237;28;20465;-70
2023/05/14 10:49:44;;;;;;;2.30;2.30;;;23.00;71.50;;;;;;4992654;28;20506;-69
2023/05/14 10:52:11;;;;;;;1.93;1.93;;;22.90;70.70;;;;;;4992604;28;20485;-70
2023/05/14 10:54:39;;;;;;;1.93;1.93;;;22.90;72.20;;;;;;4990840;28;20518;-71
2023/05/14 10:57:11;;;;;;;1.60;1.60;;;22.80;73.20;;;;;;4991609;28;20580;-72
2023/05/14 10:59:42;;;;;;;1.70;1.70;;;22.80;71.80;;;;;;4991931;28;20516;-72
2023/05/14 11:02:20;;;;;;;2.57;2.47;;;22.60;68.00;;;;;;4990818;28;20594;-71
2023/05/14 11:04:59;;;;;;;2.07;1.97;;;22.40;68.50;;;;;;4990077;28;20599;-71
2023/05/14 11:07:29;;;;;;;1.93;1.93;;;22.30;70.30;;;;;;4991461;28;20463;-71
2023/05/14 11:10:00;;;;;;;2.20;2.10;;;22.20;69.30;;;;;;4991148;28;20864;-71
2023/05/14 11:12:28;;;;;;;1.57;1.57;;;22.20;69.80;;;;;;4991339;28;20518;-71
2023/05/14 11:14:56;;;;;;;1.67;1.67;;;22.00;70.70;;;;;;4989902;28;20948;-71
2023/05/14 11:17:25;;;;;;;2.80;2.70;;;21.90;71.60;;;;;;4991013;28;20471;-71
2023/05/14 11:19:51;;;;;;;1.83;1.80;;;21.90;73.60;;;;;;4990998;28;20551;-71
2023/05/14 11:22:18;;;;;;;2.07;2.07;;;21.70;73.30;;;;;;4991121;28;20494;-72
2023/05/14 11:24:45;;;;;;;1.70;1.70;;;21.80;73.70;;;;;;4990185;28;20486;-71
2023/05/14 11:27:12;;;;;;;7.70;2.37;;;21.70;74.00;;;;;;4990630;28;20462;-70
2023/05/14 11:29:39;;;;;;;1.77;1.77;;;21.70;75.90;;;;;;4990308;28;20470;-70
2023/05/14 11:32:06;;;;;;;2.30;2.20;;;21.40;76.60;;;;;;4990519;28;20985;-71
2023/05/14 11:34:35;;;;;;;2.40;2.40;;;21.30;75.50;;;;;;4989875;28;20474;-70
2023/05/14 11:37:04;;;;;;;1.97;1.97;;;21.30;77.00;;;;;;4990720;28;20470;-70
2023/05/14 11:39:31;;;;;;;2.13;2.03;;;21.30;78.30;;;;;;4989792;28;20466;-71
2023/05/14 11:41:58;;;;;;;1.50;1.50;;;21.30;76.40;;;;;;4985691;28;20493;-71
2023/05/14 11:44:25;;;;;;;1.60;1.60;;;21.30;75.30;;;;;;4991412;28;20578;-71
2023/05/14 11:46:56;;;;;;;2.27;2.27;;;21.30;77.10;;;;;;4994531;28;20504;-71
2023/05/14 11:49:23;;;;;;;2.17;1.90;;;21.30;78.20;;;;;;4994872;28;20458;-71
2023/05/14 11:51:57;;;;;;;1.90;1.80;;;21.30;78.40;;;;;;4994410;28;20522;-71
2023/05/14 11:54:26;;;;;;;3.07;2.87;;;21.30;77.80;;;;;;4993859;28;20593;-74
2023/05/14 11:56:54;;;;;;;1.60;1.60;;;21.20;77.40;;;;;;4994577;28;20463;-72
2023/05/14 11:59:20;;;;;;;1.60;1.60;;;21.30;79.30;;;;;;4994151;28;20466;-71
2023/05/14 12:01:48;;;;;;;2.40;2.30;;;21.20;77.10;;;;;;4993752;28;20983;-72
2023/05/14 12:04:15;;;;;;;2.37;2.37;;;21.20;79.30;;;;;;4993487;28;20589;-72
2023/05/14 12:06:41;;;;;;;2.57;2.47;;;21.20;77.40;;;;;;4993958;28;20470;-71
2023/05/14 12:09:15;;;;;;;2.17;2.17;;;21.20;77.10;;;;;;4994035;28;20466;-71
2023/05/14 12:11:41;;;;;;;2.27;2.17;;;21.30;77.10;;;;;;4994005;28;20490;-72
2023/05/14 12:14:12;;;;;;;1.83;1.73;;;21.40;77.60;;;;;;4993752;28;20459;-72
2023/05/14 12:16:41;;;;;;;2.10;2.00;;;21.40;77.90;;;;;;4993908;28;20506;-72
2023/05/14 12:19:09;;;;;;;1.47;1.47;;;21.50;78.00;;;;;;4994273;28;20986;-71
2023/05/14 12:21:36;;;;;;;2.77;2.67;;;21.50;77.70;;;;;;4993582;28;20515;-72
2023/05/14 12:24:03;;;;;;;2.97;2.87;;;21.50;78.20;;;;;;4993020;28;20520;-71
2023/05/14 12:26:34;;;;;;;2.37;2.27;;;21.60;78.50;;;;;;4994601;28;20469;-71
2023/05/14 12:29:02;;;;;;;2.53;2.43;;;21.70;79.00;;;;;;4994106;28;20470;-71
2023/05/14 12:31:29;;;;;;;2.33;2.33;;;21.70;76.80;;;;;;4992654;28;20486;-71
2023/05/14 12:33:56;;;;;;;3.40;3.30;;;21.60;76.40;;;;;;4993392;28;20463;-71
2023/05/14 12:36:23;;;;;;;3.43;3.23;;;21.60;77.10;;;;;;4994634;28;20462;-70
2023/05/14 12:38:50;;;;;;;3.13;2.93;;;21.50;76.70;;;;;;4993878;28;20486;-71
2023/05/14 12:41:17;;;;;;;3.70;3.30;;;21.60;77.70;;;;;;4986048;28;20486;-70
2023/05/14 12:43:48;;;;;;;2.30;2.20;;;21.70;75.50;;;;;;4992936;28;20467;-70
2023/05/14 12:46:15;;;;;;;3.37;3.07;;;21.60;73.90;;;;;;4992342;28;20581;-70
2023/05/14 12:48:41;;;;;;;1.30;1.30;;;21.70;73.30;;;;;;4993064;28;20474;-70
2023/05/14 12:51:08;;;;;;;2.33;2.30;;;21.80;74.60;;;;;;4992632;28;20504;-70
2023/05/14 12:53:35;;;;;;;1.83;1.83;;;21.90;75.50;;;;;;4992541;28;20582;-70
2023/05/14 12:56:02;;;;;;;2.10;2.00;;;22.10;75.80;;;;;;4992586;28;20524;-71
2023/05/14 12:58:28;;;;;;;1.57;1.57;;;22.20;74.00;;;;;;4993224;28;21016;-71
2023/05/14 13:00:56;;;;;;;1.90;1.90;;;22.20;74.10;;;;;;4991999;28;21040;-71
2023/05/14 13:03:23;;;;;;;2.17;2.03;;;22.30;73.70;;;;;;4992243;28;20468;-71
2023/05/14 13:05:51;;;;;;;2.30;2.20;;;22.30;74.80;;;;;;4992364;28;20947;-70
2023/05/14 13:08:20;;;;;;;2.00;1.90;;;22.30;74.30;;;;;;4993103;28;20494;-70
2023/05/14 13:10:47;;;;;;;1.87;1.73;;;22.50;75.50;;;;;;4977368;28;20975;-72
2023/05/14 13:13:15;;;;;;;2.03;1.97;;;22.50;73.70;;;;;;4992896;28;20832;-72
2023/05/14 13:15:42;;;;;;;2.03;2.03;;;22.50;74.20;;;;;;4991794;28;20930;-72
2023/05/14 13:18:10;;;;;;;2.40;2.20;;;22.50;74.10;;;;;;4986638;28;20589;-72
2023/05/14 13:20:37;;;;;;;1.60;1.50;;;22.50;73.00;;;;;;4974771;28;20869;-71
2023/05/14 13:23:03;;;;;;;2.40;2.30;;;22.60;73.70;;;;;;4981154;28;20480;-73
2023/05/14 13:25:30;;;;;;;2.37;2.27;;;22.60;73.10;;;;;;4979226;28;20577;-72
2023/05/14 13:27:57;;;;;;;2.13;2.03;;;22.60;71.30;;;;;;4985548;28;21098;-72
2023/05/14 13:30:24;;;;;;;2.53;1.63;;;22.50;72.10;;;;;;4982397;28;20524;-73
2023/05/14 13:32:50;;;;;;;1.70;1.70;;;22.60;71.20;;;;;;4979860;28;20479;-72
2023/05/14 13:35:19;;;;;;;2.20;2.20;;;22.70;73.40;;;;;;4990387;28;20488;-73
2023/05/14 13:37:46;;;;;;;1.57;1.57;;;22.70;72.50;;;;;;4992642;28;20533;-73
2023/05/14 13:40:14;;;;;;;2.23;1.90;;;22.80;72.00;;;;;;4978766;28;20513;-72
2023/05/14 13:42:40;;;;;;;1.87;1.87;;;22.70;69.80;;;;;;4992165;28;20461;-72
2023/05/14 13:45:08;;;;;;;1.50;1.50;;;22.70;67.60;;;;;;4982308;28;20488;-72
2023/05/14 13:47:34;;;;;;;1.43;1.43;;;22.80;68.30;;;;;;4992357;28;20977;-71
2023/05/14 13:50:01;;;;;;;1.83;1.83;;;22.80;68.10;;;;;;4989657;28;20480;-71
2023/05/14 13:52:29;;;;;;;2.40;2.40;;;22.80;67.80;;;;;;4984433;28;20851;-71
2023/05/14 13:54:56;;;;;;;2.33;2.23;;;22.90;68.00;;;;;;4991969;28;20456;-71
2023/05/14 13:57:23;;;;;;;2.37;2.27;;;22.90;68.90;;;;;;4994315;28;20502;-71
2023/05/14 13:59:50;;;;;;;2.70;2.50;;;23.00;69.50;;;;;;4985763;28;20472;-71
2023/05/14 14:02:16;;;;;;;2.23;2.23;;;23.10;69.50;;;;;;4985504;28;20505;-71
2023/05/14 14:04:43;;;;;;;1.87;1.83;;;23.00;68.30;;;;;;4984734;28;20501;-71
2023/05/14 14:07:10;;;;;;;2.30;2.20;;;23.00;68.10;;;;;;4990822;28;20464;-71
2023/05/14 14:09:38;;;;;;;2.33;2.23;;;22.90;68.40;;;;;;4986771;28;20468;-70
2023/05/14 14:12:06;;;;;;;1.90;1.80;;;22.90;67.00;;;;;;4989454;28;20480;-70
2023/05/14 14:14:33;;;;;;;2.20;2.13;;;22.70;67.80;;;;;;4988297;28;20582;-70
2023/05/14 14:16:59;;;;;;;1.70;1.67;;;22.70;66.20;;;;;;4986342;28;20487;-70
2023/05/14 14:19:26;;;;;;;3.00;2.90;;;22.70;68.60;;;;;;4989250;28;20499;-70
2023/05/14 14:21:53;;;;;;;2.53;2.33;;;22.70;66.80;;;;;;4988119;28;20517;-70
2023/05/14 14:24:19;;;;;;;1.27;1.27;;;22.70;66.00;;;;;;4980422;28;20487;-70
2023/05/14 14:26:47;;;;;;;2.33;2.23;;;22.70;66.20;;;;;;4994637;28;20489;-70
2023/05/14 14:29:14;;;;;;;1.80;1.80;;;22.70;66.40;;;;;;4994831;28;20527;-70
2023/05/14 14:31:42;;;;;;;2.90;2.70;;;22.70;67.80;;;;;;4990716;28;20556;-70
2023/05/14 14:34:09;;;;;;;2.20;2.10;;;22.80;67.30;;;;;;4985844;28;20503;-70
2023/05/14 14:36:35;;;;;;;1.80;1.80;;;22.80;67.30;;;;;;4989622;28;20562;-71
2023/05/14 14:39:03;;;;;;;2.37;2.20;;;22.90;67.80;;;;;;4991856;28;20486;-69
2023/05/14 14:41:30;;;;;;;1.63;1.53;;;23.00;67.50;;;;;;4977903;28;20881;-70
2023/05/14 14:43:58;;;;;;;2.10;2.00;;;23.10;66.00;;;;;;4990172;28;20990;-70
2023/05/14 14:46:25;;;;;;;1.90;1.90;;;23.10;66.00;;;;;;4985038;28;20499;-70
2023/05/14 14:48:51;;;;;;;2.90;2.70;;;23.00;66.40;;;;;;4990873;28;20490;-70
2023/05/14 14:51:18;;;;;;;2.00;1.90;;;23.10;67.00;;;;;;4984650;28;20825;-69
2023/05/14 14:53:45;;;;;;;1.73;1.70;;;23.10;66.30;;;;;;4989155;28;20527;-70
2023/05/14 14:56:12;;;;;;;2.03;2.03;;;23.00;64.60;;;;;;4988475;28;20468;-70
2023/05/14 14:58:38;;;;;;;1.87;1.87;;;23.10;64.00;;;;;;4982799;28;20461;-70
2023/05/14 15:01:07;;;;;;;1.77;1.77;;;23.20;63.30;;;;;;4982345;28;20500;-70
2023/05/14 15:03:33;;;;;;;1.57;1.57;;;23.30;64.20;;;;;;4989365;28;20586;-70
2023/05/14 15:06:00;;;;;;;3.20;2.10;;;23.30;63.50;;;;;;4987609;28;20486;-71
2023/05/14 15:08:28;;;;;;;2.30;2.20;;;23.30;66.00;;;;;;4977739;28;20478;-70
2023/05/14 15:10:55;;;;;;;2.33;2.33;;;23.30;62.60;;;;;;4985256;28;20554;-70
2023/05/14 15:13:23;;;;;;;2.47;2.27;;;23.40;64.40;;;;;;4977319;28;20470;-70
2023/05/14 15:15:51;;;;;;;1.63;1.63;;;23.50;64.60;;;;;;4989147;28;20878;-71
2023/05/14 15:18:19;;;;;;;2.57;2.30;;;23.70;65.50;;;;;;4978712;28;20509;-70
2023/05/14 15:20:46;;;;;;;1.63;1.63;;;23.80;64.40;;;;;;4989101;28;21019;-70
2023/05/14 15:23:13;;;;;;;3.63;2.53;;;23.90;65.10;;;;;;4988292;28;20479;-70
2023/05/14 15:25:40;;;;;;;1.70;1.70;;;23.70;64.00;;;;;;4996139;28;20488;-70
2023/05/14 15:28:07;;;;;;;1.70;1.70;;;23.60;64.30;;;;;;4991033;28;20480;-71
2023/05/14 15:30:33;;;;;;;3.10;2.40;;;23.50;63.80;;;;;;4994532;28;20829;-70
2023/05/14 15:33:00;;;;;;;2.17;2.10;;;23.40;64.30;;;;;;4992570;28;20491;-70
2023/05/14 15:35:28;;;;;;;1.60;1.60;;;23.10;63.10;;;;;;4995384;28;20520;-70
2023/05/14 15:37:56;;;;;;;2.40;2.20;;;22.80;64.70;;;;;;4982395;28;20485;-70
2023/05/14 15:40:23;;;;;;;2.33;2.17;;;22.70;65.50;;;;;;4988816;28;20469;-70
2023/05/14 15:42:50;;;;;;;1.90;1.90;;;22.80;65.40;;;;;;4991142;28;20606;-70
2023/05/14 15:45:17;;;;;;;2.00;1.90;;;22.90;66.90;;;;;;4992636;28;20487;-70
2023/05/14 15:47:44;;;;;;;2.00;1.90;;;22.90;66.30;;;;;;4989339;28;20477;-70
2023/05/14 15:50:11;;;;;;;1.90;1.90;;;22.70;66.00;;;;;;4995960;28;20481;-70
2023/05/14 15:52:40;;;;;;;2.20;2.17;;;22.60;67.10;;;;;;4993195;28;21162;-70
2023/05/14 15:55:07;;;;;;;2.20;2.10;;;22.40;70.80;;;;;;4995275;28;20471;-71
2023/05/14 15:57:34;;;;;;;2.63;2.43;;;22.20;72.10;;;;;;4988621;28;20466;-71
2023/05/14 16:00:04;;;;;;;2.53;2.43;;;21.90;73.50;;;;;;4990986;28;20463;-72
2023/05/14 16:02:32;;;;;;;1.83;1.83;;;21.70;74.50;;;;;;4989712;28;20495;-71
2023/05/14 16:04:58;;;;;;;2.20;2.10;;;21.50;74.40;;;;;;4994903;28;20952;-72
2023/05/14 16:07:25;;;;;;;1.80;1.80;;;21.40;74.90;;;;;;4991357;28;20478;-72
2023/05/14 16:09:53;;;;;;;2.37;2.37;;;21.40;75.60;;;;;;4987038;28;20502;-72
2023/05/14 16:12:20;;;;;;;1.70;1.70;;;21.40;73.60;;;;;;4989435;28;20864;-71
2023/05/14 16:14:47;;;;;;;2.43;2.33;;;21.40;72.80;;;;;;4988725;28;20884;-71
2023/05/14 16:17:13;;;;;;;1.50;1.50;;;21.40;72.60;;;;;;5027147;23;20494;-70
2023/05/14 16:19:40;;;;;;;1.57;1.47;;;21.30;72.00;;;;;;4985459;28;20467;-70
2023/05/14 16:22:07;;;;;;;2.13;2.03;;;21.30;72.70;;;;;;4991550;28;20466;-69
2023/05/14 16:24:34;;;;;;;2.80;2.70;;;21.30;72.90;;;;;;4990162;28;20521;-71
2023/05/14 16:27:02;;;;;;;2.47;2.37;;;21.20;72.70;;;;;;4979201;28;20494;-70
2023/05/14 16:29:28;;;;;;;2.47;2.37;;;21.30;72.40;;;;;;4967208;28;20964;-70
2023/05/14 16:31:56;;;;;;;2.03;1.90;;;21.20;72.50;;;;;;4967536;28;20961;-67
2023/05/14 16:34:22;;;;;;;2.20;2.10;;;21.20;72.60;;;;;;4967950;28;20478;-68
2023/05/14 16:36:49;;;;;;;1.80;1.70;;;21.10;73.40;;;;;;4967665;28;20483;-68
2023/05/14 16:39:16;;;;;;;2.50;2.50;;;21.00;73.80;;;;;;4963215;28;20664;-68
2023/05/14 16:41:42;;;;;;;2.27;2.17;;;21.00;73.80;;;;;;4960722;28;20468;-69
2023/05/14 16:44:11;;;;;;;1.60;1.60;;;20.90;73.90;;;;;;4966964;28;20581;-69
2023/05/14 16:46:38;;;;;;;2.03;1.93;;;20.90;74.50;;;;;;4967604;28;20496;-69
2023/05/14 16:49:04;;;;;;;2.87;2.77;;;20.90;74.80;;;;;;4967437;28;20817;-70